createdAt,value
2023-02-18T00:01:29.659Z,99.90
2023-02-18T00:03:59.165Z,99.90
2023-02-18T00:06:34.257Z,99.90
2023-02-18T00:09:02.440Z,99.90
2023-02-18T00:11:32.777Z,99.90
2023-02-18T00:14:02.442Z,99.90
2023-02-18T00:16:30.813Z,99.90
2023-02-18T00:19:00.871Z,99.90
2023-02-18T00:21:28.922Z,99.90
2023-02-18T00:23:56.010Z,99.90
2023-02-18T00:26:23.222Z,99.90
2023-02-18T00:28:51.742Z,99.90
2023-02-18T00:31:22.469Z,99.90
2023-02-18T00:33:50.045Z,99.90
2023-02-18T00:36:19.795Z,99.90
2023-02-18T00:38:55.115Z,99.90
2023-02-18T00:41:25.708Z,99.90
2023-02-18T00:43:53.255Z,99.90
2023-02-18T00:46:21.688Z,99.90
2023-02-18T00:48:49.610Z,99.90
2023-02-18T00:51:17.011Z,99.90
2023-02-18T00:53:43.962Z,99.90
2023-02-18T00:56:11.112Z,99.90
2023-02-18T00:58:38.186Z,99.90
2023-02-18T01:01:07.607Z,99.90
2023-02-18T01:03:39.189Z,99.90
2023-02-18T01:06:07.983Z,99.90
2023-02-18T01:08:36.985Z,99.90
2023-02-18T01:11:05.107Z,99.90
2023-02-18T01:13:32.699Z,99.90
2023-02-18T01:15:59.834Z,99.90
2023-02-18T01:18:27.558Z,99.90
2023-02-18T01:20:54.671Z,99.90
2023-02-18T01:23:22.942Z,99.90
2023-02-18T01:25:50.641Z,99.90
2023-02-18T01:28:18.860Z,99.90
2023-02-18T01:30:45.819Z,99.90
2023-02-18T01:33:13.008Z,99.90
2023-02-18T01:35:40.655Z,99.90
2023-02-18T01:38:09.401Z,99.90
2023-02-18T01:40:37.010Z,99.90
2023-02-18T01:43:04.026Z,99.90
2023-02-18T01:45:57.747Z,99.90
2023-02-18T01:48:50.538Z,99.90
2023-02-18T01:51:21.959Z,99.90
2023-02-18T01:54:08.878Z,99.90
2023-02-18T01:56:51.679Z,99.90
2023-02-18T01:59:25.020Z,99.90
2023-02-18T02:01:52.841Z,99.90
2023-02-18T02:04:20.833Z,99.90
2023-02-18T02:06:47.919Z,99.90
2023-02-18T02:09:18.057Z,99.90
2023-02-18T02:12:19.720Z,99.90
2023-02-18T02:15:24.091Z,99.90
2023-02-18T02:18:35.675Z,99.90
2023-02-18T02:21:46.072Z,99.90
2023-02-18T02:24:27.897Z,99.90
2023-02-18T02:27:13.253Z,99.90
2023-02-18T02:30:15.397Z,99.90
2023-02-18T02:33:24.791Z,99.90
2023-02-18T02:36:08.973Z,99.90
2023-02-18T02:39:08.339Z,99.90
2023-02-18T02:42:01.023Z,99.90
2023-02-18T02:44:35.625Z,99.90
2023-02-18T02:47:14.356Z,99.90
2023-02-18T02:50:13.022Z,99.90
2023-02-18T02:52:51.060Z,99.90
2023-02-18T02:55:18.124Z,99.90
2023-02-18T02:57:54.822Z,99.90
2023-02-18T03:00:43.630Z,99.90
2023-02-18T03:03:34.903Z,99.90
2023-02-18T03:06:40.160Z,99.90
2023-02-18T03:09:43.416Z,99.90
2023-02-18T03:12:37.452Z,99.90
2023-02-18T03:15:31.309Z,99.90
2023-02-18T03:18:20.863Z,99.90
2023-02-18T03:20:58.016Z,99.90
2023-02-18T03:23:34.635Z,99.90
2023-02-18T03:26:03.053Z,99.90
2023-02-18T03:28:32.314Z,99.90
2023-02-18T03:31:05.750Z,99.90
2023-02-18T03:33:57.313Z,99.90
2023-02-18T03:36:25.502Z,99.90
2023-02-18T03:39:04.506Z,99.90
2023-02-18T03:41:31.553Z,99.90
2023-02-18T03:44:07.438Z,99.90
2023-02-18T03:46:37.259Z,99.90
2023-02-18T03:49:04.809Z,99.90
2023-02-18T03:51:32.365Z,99.90
2023-02-18T03:53:59.404Z,99.90
2023-02-18T03:56:26.490Z,99.90
2023-02-18T03:58:53.404Z,99.90
2023-02-18T04:01:20.708Z,99.90
2023-02-18T04:03:47.720Z,99.90
2023-02-18T04:06:14.744Z,99.90
2023-02-18T04:08:41.802Z,99.90
2023-02-18T04:11:08.666Z,99.90
2023-02-18T04:13:35.656Z,99.90
2023-02-18T04:16:02.645Z,99.90
2023-02-18T04:18:29.649Z,99.90
2023-02-18T04:20:56.533Z,99.90
2023-02-18T04:23:23.517Z,99.90
2023-02-18T04:25:50.415Z,99.90
2023-02-18T04:28:17.735Z,99.90
2023-02-18T04:30:46.978Z,99.90
2023-02-18T04:33:14.541Z,99.90
2023-02-18T04:35:42.079Z,99.90
2023-02-18T04:38:10.881Z,99.90
2023-02-18T04:40:37.793Z,99.90
2023-02-18T04:43:04.748Z,99.90
2023-02-18T04:45:31.762Z,99.90
2023-02-18T04:47:58.868Z,99.90
2023-02-18T04:50:25.825Z,99.90
2023-02-18T04:52:52.773Z,99.90
2023-02-18T04:55:19.860Z,99.90
2023-02-18T04:57:47.102Z,99.90
2023-02-18T05:00:19.879Z,99.90
2023-02-18T05:02:47.665Z,99.90
2023-02-18T05:05:15.466Z,99.90
2023-02-18T05:07:42.689Z,99.90
2023-02-18T05:10:12.268Z,99.90
2023-02-18T05:12:39.978Z,99.90
2023-02-18T05:15:07.780Z,99.90
2023-02-18T05:17:34.871Z,99.90
2023-02-18T05:20:02.181Z,99.90
2023-02-18T05:22:29.096Z,99.90
2023-02-18T05:24:56.007Z,99.90
2023-02-18T05:27:23.173Z,99.90
2023-02-18T05:29:50.138Z,99.90
2023-02-18T05:32:17.118Z,99.90
2023-02-18T05:34:44.124Z,99.90
2023-02-18T05:37:11.122Z,99.90
2023-02-18T05:39:38.022Z,99.90
2023-02-18T05:42:05.096Z,99.90
2023-02-18T05:44:32.537Z,99.90
2023-02-18T05:47:02.826Z,99.90
2023-02-18T05:49:32.246Z,99.90
2023-02-18T05:51:59.405Z,99.90
2023-02-18T05:54:27.469Z,99.90
2023-02-18T05:56:55.150Z,99.90
2023-02-18T05:59:23.249Z,99.90
2023-02-18T06:01:50.832Z,99.90
2023-02-18T06:04:17.998Z,99.90
2023-02-18T06:06:45.372Z,99.90
2023-02-18T06:09:12.807Z,99.90
2023-02-18T06:11:39.811Z,99.90
2023-02-18T06:14:06.803Z,99.90
2023-02-18T06:16:33.833Z,99.90
2023-02-18T06:19:01.040Z,99.90
2023-02-18T06:21:27.987Z,99.90
2023-02-18T06:23:54.955Z,99.90
2023-02-18T06:26:22.688Z,99.90
2023-02-18T06:28:49.567Z,99.90
2023-02-18T06:31:16.655Z,99.90
2023-02-18T06:33:43.750Z,99.90
2023-02-18T06:36:12.901Z,99.90
2023-02-18T06:38:42.572Z,99.90
2023-02-18T06:41:10.650Z,99.90
2023-02-18T06:43:38.179Z,99.90
2023-02-18T06:46:06.105Z,99.90
2023-02-18T06:48:33.535Z,99.90
2023-02-18T06:51:00.486Z,99.90
2023-02-18T06:53:27.653Z,99.90
2023-02-18T06:55:54.643Z,99.90
2023-02-18T06:58:23.239Z,99.90
2023-02-18T07:00:50.235Z,99.90
2023-02-18T07:03:17.552Z,99.90
2023-02-18T07:05:44.585Z,99.90
2023-02-18T07:08:11.888Z,99.90
2023-02-18T07:10:38.973Z,99.90
2023-02-18T07:13:06.270Z,99.90
2023-02-18T07:15:33.257Z,99.90
2023-02-18T07:18:00.473Z,99.90
2023-02-18T07:20:28.259Z,99.90
2023-02-18T07:22:55.471Z,99.90
2023-02-18T07:25:23.437Z,99.90
2023-02-18T07:27:51.283Z,99.90
2023-02-18T07:30:20.611Z,99.90
2023-02-18T07:32:47.651Z,99.90
2023-02-18T07:35:16.848Z,99.90
2023-02-18T07:37:48.504Z,99.90
2023-02-18T07:40:19.268Z,99.90
2023-02-18T07:42:46.250Z,99.90
2023-02-18T07:45:13.778Z,99.90
2023-02-18T07:47:42.220Z,99.90
2023-02-18T07:50:10.411Z,99.90
2023-02-18T07:52:37.744Z,99.90
2023-02-18T07:55:05.111Z,99.90
2023-02-18T07:57:32.078Z,99.90
2023-02-18T07:59:59.015Z,99.90
2023-02-18T08:02:26.057Z,99.90
2023-02-18T08:04:53.046Z,99.90
2023-02-18T08:07:22.100Z,99.90
2023-02-18T08:09:50.688Z,99.90
2023-02-18T08:12:17.805Z,99.90
2023-02-18T08:14:44.702Z,99.90
2023-02-18T08:17:11.771Z,99.90
2023-02-18T08:19:38.712Z,99.90
2023-02-18T08:22:05.570Z,99.90
2023-02-18T08:24:32.463Z,99.90
2023-02-18T08:27:01.422Z,99.90
2023-02-18T08:29:29.712Z,99.90
2023-02-18T08:31:59.947Z,99.90
2023-02-18T08:34:27.160Z,99.90
2023-02-18T08:36:54.159Z,99.90
2023-02-18T08:39:21.067Z,99.90
2023-02-18T08:41:48.022Z,99.90
2023-02-18T08:44:15.031Z,99.90
2023-02-18T08:46:42.134Z,99.90
2023-02-18T08:49:09.187Z,99.90
2023-02-18T08:51:36.236Z,99.90
2023-02-18T08:54:04.502Z,99.90
2023-02-18T08:56:32.639Z,99.90
2023-02-18T08:58:59.943Z,99.90
2023-02-18T09:01:27.208Z,99.90
2023-02-18T09:03:54.273Z,99.90
2023-02-18T09:06:21.366Z,99.90
2023-02-18T09:08:48.440Z,99.90
2023-02-18T09:11:15.869Z,99.90
2023-02-18T09:13:43.093Z,99.90
2023-02-18T09:16:15.668Z,99.90
2023-02-18T09:18:42.770Z,99.90
2023-02-18T09:21:11.833Z,99.90
2023-02-18T09:23:40.076Z,99.90
2023-02-18T09:26:10.112Z,99.90
2023-02-18T09:28:37.816Z,99.90
2023-02-18T09:31:16.154Z,99.90
2023-02-18T09:33:50.990Z,99.90
2023-02-18T09:36:20.725Z,99.90
2023-02-18T09:38:47.989Z,99.90
2023-02-18T09:41:24.471Z,99.90
2023-02-18T09:43:57.338Z,99.90
2023-02-18T09:46:42.814Z,99.90
2023-02-18T09:49:19.325Z,99.90
2023-02-18T09:51:47.005Z,99.90
2023-02-18T09:54:19.194Z,99.90
2023-02-18T09:56:47.134Z,99.90
2023-02-18T09:59:23.307Z,99.90
2023-02-18T10:01:53.030Z,99.90
2023-02-18T10:04:27.323Z,99.90
2023-02-18T10:06:55.565Z,99.90
2023-02-18T10:09:42.015Z,99.90
2023-02-18T10:12:17.465Z,99.90
2023-02-18T10:14:50.735Z,99.90
2023-02-18T10:17:20.865Z,99.90
2023-02-18T10:19:50.608Z,99.90
2023-02-18T10:22:18.728Z,99.90
2023-02-18T10:24:54.568Z,99.90
2023-02-18T10:27:30.652Z,99.90
2023-02-18T10:30:15.479Z,99.90
2023-02-18T10:33:36.904Z,99.90
2023-02-18T10:36:25.868Z,99.90
2023-02-18T10:39:32.929Z,99.90
2023-02-18T10:42:25.103Z,99.90
2023-02-18T10:46:03.877Z,99.90
2023-02-18T10:48:48.168Z,99.90
2023-02-18T10:51:22.696Z,99.90
2023-02-18T10:53:52.492Z,99.90
2023-02-18T10:56:41.664Z,99.90
2023-02-18T10:59:22.231Z,99.90
2023-02-18T11:01:58.081Z,99.90
2023-02-18T11:04:46.344Z,99.90
2023-02-18T11:07:35.967Z,99.90
2023-02-18T11:10:18.004Z,99.90
2023-02-18T11:12:52.241Z,99.90
2023-02-18T11:15:25.573Z,99.90
2023-02-18T11:18:02.372Z,99.90
2023-02-18T11:20:35.415Z,99.90
2023-02-18T11:23:08.326Z,99.90
2023-02-18T11:25:39.390Z,99.90
2023-02-18T11:28:18.415Z,99.90
2023-02-18T11:30:50.492Z,99.90
2023-02-18T11:33:27.104Z,99.90
2023-02-18T11:35:59.143Z,99.90
2023-02-18T11:38:38.157Z,99.90
2023-02-18T11:41:13.740Z,99.90
2023-02-18T11:43:49.556Z,99.90
2023-02-18T11:46:21.517Z,99.90
2023-02-18T11:48:49.447Z,99.90
2023-02-18T11:51:31.157Z,99.90
2023-02-18T11:54:10.018Z,99.90
2023-02-18T11:56:38.298Z,99.90
2023-02-18T11:59:06.299Z,99.90
2023-02-18T12:01:47.981Z,99.90
2023-02-18T12:04:19.238Z,99.90
2023-02-18T12:07:08.761Z,99.90
2023-02-18T12:09:52.259Z,99.90
2023-02-18T12:12:31.012Z,99.90
2023-02-18T12:14:59.972Z,99.90
2023-02-18T12:17:49.824Z,99.90
2023-02-18T12:21:13.986Z,99.90
2023-02-18T12:24:12.124Z,99.90
2023-02-18T12:27:11.310Z,99.90
2023-02-18T12:30:14.666Z,99.90
2023-02-18T12:33:00.118Z,99.90
2023-02-18T12:36:10.437Z,99.90
2023-02-18T12:38:49.578Z,99.90
2023-02-18T12:41:35.718Z,99.90
2023-02-18T12:44:27.495Z,99.90
2023-02-18T12:47:18.845Z,99.90
2023-02-18T12:50:17.649Z,99.90
2023-02-18T12:53:16.788Z,99.90
2023-02-18T12:56:24.392Z,99.90
2023-02-18T12:59:16.249Z,99.90
2023-02-18T13:01:58.648Z,99.90
2023-02-18T13:04:49.930Z,99.90
2023-02-18T13:08:00.683Z,99.90
2023-02-18T13:11:04.865Z,99.90
2023-02-18T13:13:37.379Z,99.90
2023-02-18T13:16:13.902Z,99.90
2023-02-18T13:19:07.511Z,99.90
2023-02-18T13:21:38.014Z,99.90
2023-02-18T13:24:11.412Z,99.90
2023-02-18T13:26:40.098Z,99.90
2023-02-18T13:29:34.853Z,99.90
2023-02-18T13:32:48.556Z,99.90
2023-02-18T13:35:31.630Z,99.90
2023-02-18T13:38:39.322Z,99.90
2023-02-18T13:41:06.856Z,99.90
2023-02-18T13:43:36.153Z,99.90
2023-02-18T13:46:18.199Z,99.90
2023-02-18T13:49:05.170Z,99.90
2023-02-18T13:51:47.736Z,99.90
2023-02-18T13:54:17.511Z,99.90
2023-02-18T13:57:02.718Z,99.90
2023-02-18T13:59:42.057Z,99.90
2023-02-18T14:02:21.507Z,99.90
2023-02-18T14:04:56.542Z,99.90
2023-02-18T14:07:44.362Z,99.90
2023-02-18T14:10:17.091Z,99.90
2023-02-18T14:13:19.349Z,99.90
2023-02-18T14:15:53.341Z,99.90
2023-02-18T14:18:40.276Z,99.90
2023-02-18T14:21:13.181Z,99.90
2023-02-18T14:23:43.578Z,99.90
2023-02-18T14:26:19.289Z,99.90
2023-02-18T14:28:54.704Z,99.90
2023-02-18T14:31:30.105Z,99.90
2023-02-18T14:34:19.241Z,99.90
2023-02-18T14:37:46.877Z,99.90
2023-02-18T14:40:24.787Z,99.90
2023-02-18T14:43:31.648Z,99.90
2023-02-18T14:46:20.336Z,99.90
2023-02-18T14:48:57.509Z,99.90
2023-02-18T14:51:27.306Z,99.90
2023-02-18T14:53:54.189Z,99.90
2023-02-18T14:56:22.250Z,99.90
2023-02-18T14:58:57.101Z,99.90
2023-02-18T15:01:32.449Z,99.90
2023-02-18T15:04:01.566Z,99.90
2023-02-18T15:06:28.390Z,99.90
2023-02-18T15:08:55.488Z,99.90
2023-02-18T15:11:34.760Z,99.90
2023-02-18T15:14:03.437Z,99.90
2023-02-18T15:16:34.803Z,99.90
2023-02-18T15:19:13.374Z,99.90
2023-02-18T15:21:45.027Z,99.90
2023-02-18T15:24:31.198Z,99.90
2023-02-18T15:27:15.860Z,99.90
2023-02-18T15:29:43.307Z,99.90
2023-02-18T15:32:29.629Z,99.90
2023-02-18T15:35:01.844Z,99.90
2023-02-18T15:37:30.598Z,99.90
2023-02-18T15:39:57.871Z,99.90
2023-02-18T15:42:34.238Z,99.90
2023-02-18T15:45:18.788Z,99.90
2023-02-18T15:47:50.705Z,99.90
2023-02-18T15:50:32.039Z,99.90
2023-02-18T15:53:06.850Z,99.90
2023-02-18T15:55:38.887Z,99.90
2023-02-18T15:58:33.138Z,99.90
2023-02-18T16:01:04.322Z,99.90
2023-02-18T16:03:42.830Z,99.90
2023-02-18T16:06:18.844Z,99.90
2023-02-18T16:09:18.416Z,99.90
2023-02-18T16:11:59.431Z,99.90
2023-02-18T16:14:50.591Z,99.90
2023-02-18T16:17:30.870Z,99.90
2023-02-18T16:20:16.213Z,99.90
2023-02-18T16:22:51.596Z,99.90
2023-02-18T16:25:43.009Z,99.90
2023-02-18T16:28:14.300Z,99.90
2023-02-18T16:30:41.568Z,99.90
2023-02-18T16:33:08.997Z,99.90
2023-02-18T16:35:49.076Z,99.90
2023-02-18T16:38:23.223Z,99.90
2023-02-18T16:40:52.464Z,99.90
2023-02-18T16:43:23.085Z,99.90
2023-02-18T16:45:57.607Z,99.90
2023-02-18T16:48:40.543Z,99.90
2023-02-18T16:51:45.968Z,99.90
2023-02-18T16:54:13.883Z,99.90
2023-02-18T16:56:41.087Z,99.90
2023-02-18T16:59:08.221Z,99.90
2023-02-18T17:01:41.356Z,99.90
2023-02-18T17:04:13.261Z,99.90
2023-02-18T17:06:40.785Z,99.90
2023-02-18T17:09:22.936Z,99.90
2023-02-18T17:11:52.402Z,99.90
2023-02-18T17:14:21.905Z,99.90
2023-02-18T17:16:52.120Z,99.90
2023-02-18T17:19:19.094Z,99.90
2023-02-18T17:21:48.607Z,99.90
2023-02-18T17:24:19.039Z,99.90
2023-02-18T17:26:46.007Z,99.90
2023-02-18T17:29:13.791Z,99.90
2023-02-18T17:31:47.515Z,99.90
2023-02-18T17:34:20.856Z,99.90
2023-02-18T17:36:47.808Z,99.90
2023-02-18T17:39:17.823Z,99.90
2023-02-18T17:41:45.107Z,99.90
2023-02-18T17:44:21.706Z,99.90
2023-02-18T17:46:52.357Z,99.90
2023-02-18T17:49:19.475Z,99.90
2023-02-18T17:51:46.701Z,99.90
2023-02-18T17:54:19.409Z,99.90
2023-02-18T17:56:47.009Z,99.90
2023-02-18T17:59:14.040Z,99.90
2023-02-18T18:01:42.389Z,99.90
2023-02-18T18:04:20.191Z,99.90
2023-02-18T18:06:47.314Z,99.90
2023-02-18T18:09:14.306Z,99.90
2023-02-18T18:11:41.482Z,99.90
2023-02-18T18:14:13.463Z,99.90
2023-02-18T18:16:40.498Z,99.90
2023-02-18T18:19:07.390Z,99.90
2023-02-18T18:21:35.972Z,99.90
2023-02-18T18:24:03.545Z,99.90
2023-02-18T18:26:30.798Z,99.90
2023-02-18T18:28:57.808Z,99.90
2023-02-18T18:31:24.875Z,99.90
2023-02-18T18:33:53.475Z,99.90
2023-02-18T18:36:24.026Z,99.90
2023-02-18T18:38:51.868Z,99.90
2023-02-18T18:41:22.069Z,99.90
2023-02-18T18:43:49.704Z,99.90
2023-02-18T18:46:17.234Z,99.90
2023-02-18T18:48:44.176Z,99.90
2023-02-18T18:51:28.420Z,99.90
2023-02-18T18:53:55.337Z,99.90
2023-02-18T18:56:22.296Z,99.90
2023-02-18T18:58:50.081Z,99.90
2023-02-18T19:01:22.617Z,99.90
2023-02-18T19:03:49.748Z,99.90
2023-02-18T19:06:17.291Z,99.90
2023-02-18T19:08:45.663Z,99.90
2023-02-18T19:11:13.929Z,99.90
2023-02-18T19:13:41.388Z,99.90
2023-02-18T19:16:13.252Z,99.90
2023-02-18T19:18:40.286Z,99.90
2023-02-18T19:21:07.394Z,99.90
2023-02-18T19:23:34.713Z,99.90
2023-02-18T19:26:01.598Z,99.90
2023-02-18T19:28:28.730Z,99.90
2023-02-18T19:30:55.732Z,99.90
2023-02-18T19:33:22.694Z,99.90
2023-02-18T19:35:49.622Z,99.90
2023-02-18T19:38:18.442Z,99.90
2023-02-18T19:40:46.802Z,99.90
2023-02-18T19:43:14.104Z,99.90
2023-02-18T19:45:44.222Z,99.90
2023-02-18T19:48:12.851Z,99.90
2023-02-18T19:50:42.084Z,99.90
2023-02-18T19:53:10.009Z,99.90
2023-02-18T19:55:37.311Z,99.90
2023-02-18T19:58:04.567Z,99.90
2023-02-18T20:00:31.490Z,99.90
2023-02-18T20:02:58.438Z,99.90
2023-02-18T20:05:25.642Z,99.90
2023-02-18T20:07:52.669Z,99.90
2023-02-18T20:10:20.407Z,99.90
2023-02-18T20:12:53.514Z,99.90
2023-02-18T20:15:21.270Z,99.90
2023-02-18T20:17:48.387Z,99.90
2023-02-18T20:20:15.420Z,99.90
2023-02-18T20:22:42.295Z,99.90
2023-02-18T20:25:09.441Z,99.90
2023-02-18T20:27:39.586Z,99.90
2023-02-18T20:30:11.485Z,99.90
2023-02-18T20:32:38.699Z,99.90
2023-02-18T20:35:07.002Z,99.90
2023-02-18T20:37:34.302Z,99.90
2023-02-18T20:40:01.789Z,99.90
2023-02-18T20:42:28.732Z,99.90
2023-02-18T20:44:55.645Z,99.90
2023-02-18T20:47:22.618Z,99.90
2023-02-18T20:49:49.456Z,99.90
2023-02-18T20:52:16.921Z,99.90
2023-02-18T20:54:44.042Z,99.90
2023-02-18T20:57:10.997Z,99.90
2023-02-18T20:59:37.944Z,99.90
2023-02-18T21:02:05.084Z,99.90
2023-02-18T21:04:32.058Z,99.90
2023-02-18T21:06:58.958Z,99.90
2023-02-18T21:09:26.007Z,99.90
2023-02-18T21:11:53.145Z,99.90
2023-02-18T21:14:20.127Z,99.90
2023-02-18T21:16:47.236Z,99.90
2023-02-18T21:19:17.315Z,99.90
2023-02-18T21:21:47.039Z,99.90
2023-02-18T21:24:14.109Z,99.90
2023-02-18T21:26:41.456Z,99.90
2023-02-18T21:29:09.329Z,99.90
2023-02-18T21:31:40.490Z,99.90
2023-02-18T21:34:13.045Z,99.90
2023-02-18T21:36:40.423Z,99.90
2023-02-18T21:39:10.521Z,99.90
2023-02-18T21:41:40.838Z,99.90
2023-02-18T21:44:08.901Z,99.90
2023-02-18T21:46:36.877Z,99.90
2023-02-18T21:49:12.332Z,99.90
2023-02-18T21:51:58.805Z,99.90
2023-02-18T21:54:52.925Z,99.90
2023-02-18T21:57:24.215Z,99.90
2023-02-18T21:59:51.638Z,99.90
2023-02-18T22:02:25.893Z,99.90
2023-02-18T22:04:53.652Z,99.90
2023-02-18T22:07:23.388Z,99.80
2023-02-18T22:09:51.878Z,99.90
2023-02-18T22:12:18.894Z,99.90
2023-02-18T22:14:46.138Z,99.40
2023-02-18T22:17:14.439Z,99.50
2023-02-18T22:19:41.509Z,99.90
2023-02-18T22:22:08.987Z,99.70
2023-02-18T22:24:36.194Z,99.90
2023-02-18T22:27:04.276Z,99.90
2023-02-18T22:29:32.739Z,99.90
2023-02-18T22:32:00.091Z,99.60
2023-02-18T22:34:27.197Z,99.90
2023-02-18T22:36:54.139Z,99.90
2023-02-18T22:39:21.292Z,99.40
2023-02-18T22:41:48.461Z,99.60
2023-02-18T22:44:17.658Z,99.60
2023-02-18T22:46:45.378Z,99.70
2023-02-18T22:49:13.136Z,99.90
2023-02-18T22:51:43.039Z,99.90
2023-02-18T22:54:16.919Z,99.70
2023-02-18T22:56:46.192Z,99.90
2023-02-18T22:59:15.666Z,99.90
2023-02-18T23:01:49.311Z,99.90
2023-02-18T23:04:18.864Z,99.80
2023-02-18T23:06:47.200Z,99.50
2023-02-18T23:09:21.508Z,99.60
2023-02-18T23:11:54.184Z,99.90
2023-02-18T23:14:21.853Z,99.20
2023-02-18T23:17:13.213Z,99.60
2023-02-18T23:20:00.410Z,98.90
2023-02-18T23:22:33.297Z,99.10
2023-02-18T23:25:01.772Z,99.10
2023-02-18T23:27:29.417Z,98.80
2023-02-18T23:29:56.743Z,98.60
2023-02-18T23:32:24.569Z,99.30
2023-02-18T23:34:51.828Z,99.50
2023-02-18T23:37:38.993Z,99.90
2023-02-18T23:40:06.711Z,99.40
2023-02-18T23:42:33.677Z,99.60
2023-02-18T23:45:00.605Z,99.90
2023-02-18T23:47:27.609Z,99.60
2023-02-18T23:49:54.525Z,99.20
2023-02-18T23:52:21.950Z,99.50
2023-02-18T23:54:48.821Z,99.40
2023-02-18T23:57:15.730Z,99.30
2023-02-18T23:59:42.707Z,99.20
